Time;durP1;ratioP1;P1;durP2;ratioP2;P2;SDS_P1;SDS_P2;PMS_P1;PMS_P2;Temp;Humidity;BMP_temperature;BMP_pressure;BME280_temperature;BME280_humidity;BME280_pressure;Samples;Min_cycle;Max_cycle;Signal;HPM_P1;HPM_P2
2023/03/28 00:00:38;;;;;;;5.60;4.87;;;4.80;90.00;;;;;;4993552;28;20193;-79
2023/03/28 00:03:04;;;;;;;5.23;4.40;;;4.70;90.20;;;;;;5008071;28;20330;-85
2023/03/28 00:05:30;;;;;;;5.77;4.47;;;4.70;90.70;;;;;;5007897;28;20202;-84
2023/03/28 00:07:56;;;;;;;5.57;4.43;;;4.70;90.80;;;;;;5008686;28;20178;-83
2023/03/28 00:10:22;;;;;;;5.33;4.27;;;4.70;90.30;;;;;;5008042;28;20210;-86
2023/03/28 00:12:47;;;;;;;5.53;5.03;;;4.70;91.00;;;;;;5007418;28;20227;-85
2023/03/28 00:15:16;;;;;;;5.37;4.70;;;4.70;90.20;;;;;;5012562;28;20213;-82
2023/03/28 00:17:42;;;;;;;5.83;5.03;;;4.70;89.60;;;;;;5035764;28;20178;-83
2023/03/28 00:20:09;;;;;;;4.67;3.87;;;4.70;89.80;;;;;;5019158;28;20217;-82
2023/03/28 00:22:36;;;;;;;5.10;4.60;;;4.60;89.90;;;;;;5026321;28;20213;-86
2023/03/28 00:25:05;;;;;;;5.20;4.70;;;4.50;88.40;;;;;;5028560;28;20198;-86
2023/03/28 00:27:32;;;;;;;5.63;4.70;;;4.30;88.90;;;;;;5029366;28;20192;-87
2023/03/28 00:29:58;;;;;;;4.90;4.37;;;4.20;90.10;;;;;;5017620;28;20190;-81
2023/03/28 00:32:24;;;;;;;5.87;4.23;;;4.30;90.50;;;;;;5009485;28;20229;-84
2023/03/28 00:34:49;;;;;;;4.90;3.93;;;4.30;90.00;;;;;;5007588;28;20201;-83
2023/03/28 00:37:16;;;;;;;4.80;4.07;;;4.20;89.30;;;;;;4994941;28;20187;-85
2023/03/28 00:39:48;;;;;;;5.50;3.90;;;4.30;88.80;;;;;;5026928;28;20265;-85
2023/03/28 00:42:19;;;;;;;4.00;3.60;;;4.30;87.00;;;;;;5026794;28;20413;-84
2023/03/28 00:44:50;;;;;;;4.37;3.90;;;4.30;87.20;;;;;;5027330;28;20260;-83
2023/03/28 00:47:37;;;;;;;4.63;4.20;;;4.30;87.80;;;;;;5027986;28;20245;-82
2023/03/28 00:50:06;;;;;;;4.23;3.83;;;4.40;86.80;;;;;;5042300;28;21016;-83
2023/03/28 00:52:43;;;;;;;3.93;3.53;;;4.40;87.10;;;;;;5049129;28;20197;-82
2023/03/28 00:55:15;;;;;;;4.73;3.77;;;4.50;86.70;;;;;;5048217;28;20219;-81
2023/03/28 00:57:42;;;;;;;5.97;3.93;;;4.30;87.00;;;;;;5009337;28;20285;-83
2023/03/28 01:00:12;;;;;;;4.63;3.70;;;4.30;86.40;;;;;;5009650;28;20238;-83
2023/03/28 01:02:41;;;;;;;5.53;4.27;;;4.30;86.40;;;;;;5008122;28;20178;-85
2023/03/28 01:05:08;;;;;;;4.43;3.60;;;4.30;86.10;;;;;;5006729;28;20202;-82
2023/03/28 01:07:39;;;;;;;5.37;3.77;;;4.30;86.50;;;;;;5025039;28;20190;-81
2023/03/28 01:10:07;;;;;;;6.17;3.47;;;4.30;86.00;;;;;;5028150;28;20181;-82
2023/03/28 01:12:33;;;;;;;3.90;3.53;;;4.30;83.50;;;;;;5033624;28;20643;-84
2023/03/28 01:15:00;;;;;;;4.60;4.00;;;4.20;84.30;;;;;;5036730;28;20200;-83
2023/03/28 01:17:26;;;;;;;4.13;3.40;;;4.20;84.10;;;;;;5048327;28;20177;-83
2023/03/28 01:20:25;;;;;;;4.43;3.33;;;4.10;83.40;;;;;;5047591;28;20223;-84
2023/03/28 01:23:06;;;;;;;4.00;3.50;;;4.10;84.50;;;;;;5028153;28;20169;-81
2023/03/28 01:25:42;;;;;;;3.60;3.27;;;4.10;84.40;;;;;;5027833;28;20691;-79
2023/03/28 01:28:36;;;;;;;3.87;3.07;;;4.20;83.50;;;;;;5024555;28;20182;-84
2023/03/28 01:31:50;;;;;;;5.27;3.47;;;4.20;82.10;;;;;;5008663;28;20197;-85
2023/03/28 01:34:37;;;;;;;3.73;3.43;;;4.30;81.30;;;;;;4998307;28;20186;-84
2023/03/28 01:37:27;;;;;;;3.43;3.13;;;4.20;82.60;;;;;;5007744;28;20178;-84
2023/03/28 01:39:55;;;;;;;4.00;3.60;;;4.10;83.10;;;;;;5007845;28;20167;-83
2023/03/28 01:42:35;;;;;;;4.07;3.47;;;4.10;83.50;;;;;;5007628;28;20183;-83
2023/03/28 01:45:18;;;;;;;3.60;3.20;;;4.10;83.20;;;;;;4989208;28;20213;-82
2023/03/28 01:48:23;;;;;;;3.87;3.30;;;3.90;83.70;;;;;;5008211;28;20170;-80
2023/03/28 01:51:10;;;;;;;4.33;3.47;;;3.90;85.60;;;;;;4997895;28;20200;-83
2023/03/28 01:54:11;;;;;;;3.97;3.57;;;3.90;85.80;;;;;;5028251;28;20224;-80
2023/03/28 01:56:49;;;;;;;4.73;3.63;;;3.80;85.50;;;;;;4991278;28;20251;-83
2023/03/28 01:59:18;;;;;;;3.60;3.30;;;3.80;85.90;;;;;;5026683;28;20165;-85
2023/03/28 02:01:47;;;;;;;3.93;3.40;;;3.70;85.30;;;;;;5026002;28;20213;-83
2023/03/28 02:04:19;;;;;;;5.17;3.70;;;3.70;85.80;;;;;;5026820;28;20209;-83
2023/03/28 02:06:46;;;;;;;3.43;3.13;;;3.70;86.10;;;;;;5026140;28;20208;-81
2023/03/28 02:09:14;;;;;;;4.13;3.73;;;3.70;86.40;;;;;;5042761;28;20211;-81
2023/03/28 02:11:41;;;;;;;4.87;3.83;;;3.70;87.40;;;;;;5025860;28;20230;-84
2023/03/28 02:14:15;;;;;;;4.73;3.83;;;3.60;88.50;;;;;;5026239;28;20184;-82
2023/03/28 02:16:44;;;;;;;4.33;3.97;;;3.60;90.10;;;;;;5009230;28;20208;-83
2023/03/28 02:19:12;;;;;;;4.53;3.63;;;3.50;91.00;;;;;;5027516;28;20531;-82
2023/03/28 02:21:59;;;;;;;4.73;3.83;;;3.50;91.00;;;;;;5034032;28;20235;-86
2023/03/28 02:24:25;;;;;;;3.80;3.43;;;3.50;90.40;;;;;;5035638;28;20169;-85
2023/03/28 02:26:52;;;;;;;4.03;3.63;;;3.40;90.10;;;;;;5036825;28;20189;-83
2023/03/28 02:29:18;;;;;;;5.07;3.80;;;3.40;90.60;;;;;;5035658;28;20178;-82
2023/03/28 02:31:45;;;;;;;4.13;3.80;;;3.40;90.20;;;;;;5019844;28;20214;-84
2023/03/28 02:34:11;;;;;;;6.37;4.07;;;3.40;90.20;;;;;;5011654;28;20268;-81
2023/03/28 02:36:51;;;;;;;4.10;3.30;;;3.50;89.30;;;;;;5007753;28;20206;-84
2023/03/28 02:39:35;;;;;;;6.50;4.10;;;3.50;87.80;;;;;;5008399;28;20197;-82
2023/03/28 02:42:20;;;;;;;4.20;3.80;;;3.50;87.80;;;;;;5008318;28;20182;-85
2023/03/28 02:45:16;;;;;;;4.90;3.60;;;3.40;88.20;;;;;;4990099;28;20202;-81
2023/03/28 02:48:01;;;;;;;5.27;4.10;;;3.40;88.90;;;;;;5009031;28;20198;-84
2023/03/28 02:50:41;;;;;;;5.03;4.53;;;3.40;88.10;;;;;;5008822;28;20163;-83
2023/03/28 02:53:09;;;;;;;5.63;4.40;;;3.40;88.70;;;;;;5010115;28;20205;-84
2023/03/28 02:55:54;;;;;;;4.90;4.07;;;3.50;89.60;;;;;;5026229;28;20212;-86
2023/03/28 02:58:33;;;;;;;4.90;4.40;;;3.50;89.60;;;;;;5026085;28;20169;-80
2023/03/28 03:01:01;;;;;;;4.67;4.10;;;3.40;88.90;;;;;;5020565;28;20178;-87
2023/03/28 03:03:27;;;;;;;4.50;3.83;;;3.40;88.50;;;;;;4988580;28;20208;-84
2023/03/28 03:05:53;;;;;;;4.03;3.63;;;3.40;88.40;;;;;;5034194;28;20755;-85
2023/03/28 03:08:19;;;;;;;4.30;3.90;;;3.30;87.80;;;;;;5044965;28;20189;-83
2023/03/28 03:10:44;;;;;;;3.90;3.60;;;3.30;88.40;;;;;;5044061;28;20224;-82
2023/03/28 03:13:10;;;;;;;5.17;3.53;;;3.30;88.10;;;;;;5028563;28;20245;-83
2023/03/28 03:15:36;;;;;;;4.57;4.10;;;3.30;86.20;;;;;;5027771;28;20297;-85
2023/03/28 03:18:03;;;;;;;4.80;4.27;;;3.10;87.60;;;;;;5028239;28;20194;-82
2023/03/28 03:20:32;;;;;;;5.47;3.83;;;3.10;87.80;;;;;;5026772;28;20208;-83
2023/03/28 03:23:01;;;;;;;4.17;3.77;;;3.00;88.80;;;;;;5005220;28;20197;-84
2023/03/28 03:25:27;;;;;;;5.17;4.00;;;3.00;88.70;;;;;;5005807;28;20210;-84
2023/03/28 03:27:53;;;;;;;4.87;3.87;;;2.90;88.40;;;;;;5004222;28;20237;-82
2023/03/28 03:30:18;;;;;;;4.87;4.07;;;2.80;89.00;;;;;;4987114;28;20178;-81
2023/03/28 03:32:44;;;;;;;5.17;4.40;;;2.90;88.60;;;;;;5004286;28;20229;-83
2023/03/28 03:35:10;;;;;;;4.70;3.80;;;3.00;87.60;;;;;;5003670;28;20863;-81
2023/03/28 03:37:36;;;;;;;5.87;4.00;;;2.90;88.30;;;;;;5011831;28;20261;-82
2023/03/28 03:40:04;;;;;;;4.97;4.40;;;2.90;87.00;;;;;;5022344;28;20283;-81
2023/03/28 03:42:30;;;;;;;4.40;4.00;;;2.80;88.50;;;;;;5008499;28;20206;-83
2023/03/28 03:44:56;;;;;;;4.77;4.27;;;2.80;88.70;;;;;;5008100;28;20198;-84
2023/03/28 03:47:21;;;;;;;6.30;4.00;;;2.70;89.50;;;;;;5008910;28;20185;-83
2023/03/28 03:49:47;;;;;;;4.90;4.30;;;2.70;89.30;;;;;;5033288;28;20189;-82
2023/03/28 03:52:13;;;;;;;5.27;4.30;;;2.70;89.20;;;;;;5047951;28;20331;-87
2023/03/28 03:54:39;;;;;;;5.77;4.13;;;2.70;90.80;;;;;;5046325;28;20180;-82
2023/03/28 03:57:04;;;;;;;4.40;4.00;;;2.70;89.10;;;;;;5047759;28;20161;-84
2023/03/28 03:59:30;;;;;;;4.80;4.30;;;2.60;89.30;;;;;;5029507;28;20181;-82
2023/03/28 04:01:56;;;;;;;4.77;4.30;;;2.60;89.40;;;;;;5025305;28;20204;-83
2023/03/28 04:04:22;;;;;;;4.93;4.43;;;2.60;89.20;;;;;;5027683;28;20353;-82
2023/03/28 04:06:47;;;;;;;6.63;4.63;;;2.60;89.50;;;;;;5008326;28;20254;-83
2023/03/28 04:09:13;;;;;;;4.87;4.40;;;2.50;90.00;;;;;;5016146;28;20189;-83
2023/03/28 04:11:39;;;;;;;4.87;4.40;;;2.60;89.10;;;;;;5029042;28;20773;-82
2023/03/28 04:14:04;;;;;;;4.70;4.30;;;2.40;91.30;;;;;;5023012;28;20194;-83
2023/03/28 04:16:33;;;;;;;9.10;4.50;;;2.40;91.00;;;;;;5028627;28;20217;-85
2023/03/28 04:18:59;;;;;;;6.40;4.33;;;2.30;91.50;;;;;;5028698;28;20184;-85
2023/03/28 04:21:31;;;;;;;6.23;4.57;;;2.30;90.80;;;;;;5028926;28;20169;-85
2023/03/28 04:24:00;;;;;;;11.63;10.27;;;2.40;91.20;;;;;;5027843;28;20209;-83
2023/03/28 04:26:27;;;;;;;6.87;6.23;;;2.40;90.50;;;;;;5026749;28;20204;-84
2023/03/28 04:28:54;;;;;;;6.57;4.83;;;2.50;90.70;;;;;;5026158;28;20181;-83
2023/03/28 04:31:22;;;;;;;5.60;5.10;;;2.50;90.10;;;;;;5021067;28;20245;-80
2023/03/28 04:33:48;;;;;;;7.50;4.90;;;2.50;90.30;;;;;;5022741;28;20282;-85
2023/03/28 04:36:15;;;;;;;7.23;5.33;;;2.50;92.10;;;;;;5021823;28;20202;-84
2023/03/28 04:38:44;;;;;;;5.70;5.20;;;2.50;92.10;;;;;;5023347;28;20182;-83
2023/03/28 04:41:11;;;;;;;5.17;4.77;;;2.50;92.70;;;;;;5025445;28;20189;-81
2023/03/28 04:43:36;;;;;;;6.83;4.57;;;2.60;92.80;;;;;;5023496;28;20182;-83
2023/03/28 04:46:02;;;;;;;7.87;5.27;;;2.60;92.10;;;;;;5022006;28;20204;-83
2023/03/28 04:48:28;;;;;;;10.37;9.27;;;2.70;91.50;;;;;;5021496;28;20211;-84
2023/03/28 04:50:54;;;;;;;6.33;5.70;;;2.70;91.70;;;;;;5019446;28;20711;-81
2023/03/28 04:53:21;;;;;;;6.17;5.57;;;2.70;91.30;;;;;;5020468;28;20224;-84
2023/03/28 04:55:49;;;;;;;6.20;5.60;;;2.60;90.90;;;;;;5020650;28;20214;-85
2023/03/28 04:58:19;;;;;;;5.87;5.37;;;2.60;90.60;;;;;;5024200;28;20194;-81
2023/03/28 05:00:45;;;;;;;5.47;4.97;;;2.40;91.40;;;;;;5012629;28;20171;-81
2023/03/28 05:03:13;;;;;;;8.30;6.77;;;2.30;93.20;;;;;;5006961;28;20197;-81
2023/03/28 05:05:40;;;;;;;9.70;7.00;;;2.30;94.30;;;;;;5009083;28;20230;-83
2023/03/28 05:08:05;;;;;;;7.37;5.50;;;2.20;95.30;;;;;;5001616;28;20645;-84
2023/03/28 05:10:31;;;;;;;6.03;5.50;;;2.20;94.80;;;;;;5023106;28;20227;-81
2023/03/28 05:12:57;;;;;;;6.07;5.47;;;2.20;94.10;;;;;;5021546;28;20243;-82
2023/03/28 05:15:23;;;;;;;5.83;5.33;;;2.20;94.40;;;;;;5022233;28;20216;-83
2023/03/28 05:17:49;;;;;;;5.63;5.13;;;2.30;94.30;;;;;;5022760;28;20224;-83
2023/03/28 05:20:17;;;;;;;6.90;5.30;;;2.30;95.10;;;;;;5023141;28;20216;-82
2023/03/28 05:22:43;;;;;;;7.30;5.87;;;2.30;93.80;;;;;;5022413;28;20726;-83
2023/03/28 05:25:09;;;;;;;7.83;5.63;;;2.30;94.30;;;;;;5057680;22;20237;-82
2023/03/28 05:27:37;;;;;;;10.13;5.53;;;2.30;93.60;;;;;;5042911;28;20185;-80
2023/03/28 05:30:06;;;;;;;6.00;5.40;;;2.20;93.70;;;;;;5048166;28;20339;-81
2023/03/28 05:32:31;;;;;;;9.27;5.70;;;2.20;94.60;;;;;;5061458;28;20291;-81
2023/03/28 05:34:57;;;;;;;9.77;5.27;;;2.20;94.60;;;;;;5031134;28;20892;-80
2023/03/28 05:37:23;;;;;;;5.63;5.03;;;2.30;93.70;;;;;;5019004;28;20193;-81
2023/03/28 05:39:48;;;;;;;6.03;5.43;;;2.30;93.80;;;;;;5018690;28;20201;-81
2023/03/28 05:42:14;;;;;;;5.80;5.23;;;2.20;95.00;;;;;;5018728;28;20213;-81
2023/03/28 05:44:40;;;;;;;6.60;5.20;;;2.30;94.70;;;;;;5017404;28;20205;-82
2023/03/28 05:47:06;;;;;;;6.07;4.93;;;2.30;94.90;;;;;;5017946;28;20190;-82
2023/03/28 05:49:31;;;;;;;5.20;4.70;;;2.30;93.60;;;;;;5033395;28;20199;-82
2023/03/28 05:51:58;;;;;;;5.30;4.80;;;2.30;94.30;;;;;;5014688;28;20672;-81
2023/03/28 05:54:24;;;;;;;5.43;4.83;;;2.30;94.70;;;;;;5033046;28;20204;-81
2023/03/28 05:56:50;;;;;;;6.00;5.37;;;2.20;94.40;;;;;;4997854;28;20178;-79
2023/03/28 05:59:17;;;;;;;5.77;5.23;;;2.30;95.10;;;;;;5016342;28;20182;-81
2023/03/28 06:01:45;;;;;;;6.30;5.63;;;2.20;95.50;;;;;;5017213;28;20185;-82
2023/03/28 06:04:11;;;;;;;5.73;5.10;;;2.30;94.70;;;;;;5017490;28;20210;-82
2023/03/28 06:06:37;;;;;;;6.20;5.60;;;2.20;94.60;;;;;;5015834;28;20707;-83
2023/03/28 06:09:03;;;;;;;9.43;6.20;;;2.30;95.10;;;;;;5015846;28;20796;-79
2023/03/28 06:11:31;;;;;;;9.00;5.90;;;2.30;95.00;;;;;;5016188;28;20191;-81
2023/03/28 06:13:57;;;;;;;8.50;6.27;;;2.30;95.30;;;;;;5015893;28;20576;-79
2023/03/28 06:16:23;;;;;;;8.93;5.67;;;2.40;95.40;;;;;;5016698;28;20178;-81
2023/03/28 06:18:49;;;;;;;6.03;5.13;;;2.50;95.00;;;;;;5000119;28;20228;-81
2023/03/28 06:21:15;;;;;;;7.37;5.13;;;2.50;94.90;;;;;;5000267;28;20178;-79
2023/03/28 06:23:40;;;;;;;8.60;5.50;;;2.60;94.60;;;;;;5018226;28;20213;-79
2023/03/28 06:26:06;;;;;;;5.73;4.93;;;2.50;94.10;;;;;;5017762;28;20232;-81
2023/03/28 06:28:32;;;;;;;10.67;6.40;;;2.60;94.50;;;;;;5019442;28;20186;-82
2023/03/28 06:30:57;;;;;;;71.10;13.97;;;2.70;94.70;;;;;;5018932;28;20181;-79
2023/03/28 06:33:23;;;;;;;12.33;6.53;;;3.00;99.90;;;;;;4998924;28;20422;-80
2023/03/28 06:35:49;;;;;;;8.37;5.77;;;3.30;99.90;;;;;;5016918;28;20204;-81
2023/03/28 06:38:14;;;;;;;7.07;5.43;;;3.30;94.50;;;;;;5023655;28;20180;-82
2023/03/28 06:40:40;;;;;;;6.87;5.67;;;3.10;94.70;;;;;;5037753;28;20207;-80
2023/03/28 06:43:05;;;;;;;8.57;6.27;;;3.10;93.60;;;;;;5031459;28;20211;-80
2023/03/28 06:45:31;;;;;;;8.03;5.83;;;3.10;93.80;;;;;;5019247;28;20274;-83
2023/03/28 06:47:57;;;;;;;6.17;5.20;;;3.20;93.70;;;;;;4999524;28;20216;-81
2023/03/28 06:50:22;;;;;;;8.07;5.70;;;3.10;93.90;;;;;;5007294;28;20200;-81
2023/03/28 06:52:48;;;;;;;7.87;5.20;;;3.00;95.40;;;;;;5028349;28;20246;-81
2023/03/28 06:55:14;;;;;;;5.90;5.30;;;3.00;95.90;;;;;;5035697;28;20193;-80
2023/03/28 06:57:40;;;;;;;6.03;5.10;;;3.00;96.70;;;;;;5036525;28;20173;-79
2023/03/28 07:00:07;;;;;;;10.07;4.60;;;2.90;97.60;;;;;;5022934;28;20209;-81
2023/03/28 07:02:35;;;;;;;7.60;5.53;;;2.80;98.50;;;;;;5021135;28;20224;-82
2023/03/28 07:05:00;;;;;;;6.07;5.17;;;2.90;99.90;;;;;;5003197;28;20288;-80
2023/03/28 07:07:26;;;;;;;5.70;4.63;;;3.00;97.40;;;;;;5021836;28;20208;-82
2023/03/28 07:09:53;;;;;;;5.63;5.10;;;3.00;99.90;;;;;;5022059;28;20269;-83
2023/03/28 07:12:19;;;;;;;6.00;5.50;;;3.10;99.60;;;;;;5024749;28;20217;-83
2023/03/28 07:14:46;;;;;;;7.93;7.10;;;3.20;99.20;;;;;;5022166;28;20201;-81
2023/03/28 07:17:12;;;;;;;5.67;5.00;;;3.10;98.90;;;;;;5022766;28;20193;-82
2023/03/28 07:19:38;;;;;;;6.90;5.40;;;3.20;97.60;;;;;;5020064;28;20186;-81
2023/03/28 07:22:04;;;;;;;5.63;5.13;;;3.20;99.00;;;;;;5021449;28;20326;-83
2023/03/28 07:24:30;;;;;;;6.30;5.27;;;3.10;99.80;;;;;;5029787;28;20232;-81
2023/03/28 07:26:55;;;;;;;8.73;5.20;;;3.20;98.00;;;;;;5041741;28;20177;-80
2023/03/28 07:29:21;;;;;;;5.50;5.00;;;3.40;97.00;;;;;;5040576;28;20245;-81
2023/03/28 07:31:47;;;;;;;6.87;5.47;;;3.40;96.50;;;;;;5041299;28;20181;-82
2023/03/28 07:34:15;;;;;;;6.70;5.53;;;3.50;96.00;;;;;;5024140;28;20377;-81
2023/03/28 07:36:41;;;;;;;8.97;5.40;;;3.50;96.90;;;;;;5027437;28;20181;-82
2023/03/28 07:39:07;;;;;;;6.77;5.33;;;3.60;96.00;;;;;;5020783;28;20239;-81
2023/03/28 07:41:33;;;;;;;7.63;5.13;;;3.70;95.20;;;;;;5021111;28;20178;-81
2023/03/28 07:43:58;;;;;;;7.20;5.20;;;3.70;96.10;;;;;;5020165;28;20202;-84
2023/03/28 07:46:24;;;;;;;7.13;6.23;;;3.80;94.40;;;;;;5029271;28;20193;-83
2023/03/28 07:48:50;;;;;;;6.17;5.40;;;3.80;94.30;;;;;;5020003;28;20178;-81
2023/03/28 07:51:16;;;;;;;7.03;5.40;;;3.90;95.30;;;;;;5020253;28;20185;-83
2023/03/28 07:53:42;;;;;;;7.47;5.47;;;4.00;95.70;;;;;;5020480;28;20278;-84
2023/03/28 07:56:12;;;;;;;10.07;5.83;;;3.90;95.00;;;;;;5002067;28;20212;-83
2023/03/28 07:58:39;;;;;;;6.50;5.70;;;4.00;94.30;;;;;;5001290;28;20809;-81
2023/03/28 08:01:07;;;;;;;7.00;6.00;;;4.20;93.20;;;;;;5020601;28;20182;-83
2023/03/28 08:03:34;;;;;;;6.30;5.63;;;4.30;93.00;;;;;;5019883;28;20233;-82
2023/03/28 08:06:01;;;;;;;7.60;6.07;;;4.40;91.30;;;;;;5017998;28;20190;-82
2023/03/28 08:08:28;;;;;;;6.87;5.60;;;4.50;91.10;;;;;;5019362;28;20197;-88
2023/03/28 08:10:53;;;;;;;6.30;5.73;;;4.50;91.00;;;;;;5018859;28;20177;-81
2023/03/28 08:13:19;;;;;;;8.03;5.97;;;4.60;90.60;;;;;;5019971;28;20301;-82
2023/03/28 08:15:48;;;;;;;6.77;5.33;;;4.50;88.30;;;;;;5019031;28;20182;-79
2023/03/28 08:18:19;;;;;;;8.00;5.60;;;4.60;88.70;;;;;;5021453;28;20203;-81
2023/03/28 08:20:46;;;;;;;7.00;5.70;;;4.60;89.20;;;;;;5019538;28;20158;-84
2023/03/28 08:23:12;;;;;;;7.20;6.07;;;4.80;88.50;;;;;;5016756;28;20235;-79
2023/03/28 08:25:38;;;;;;;10.33;6.03;;;5.00;86.10;;;;;;5021677;28;20198;-82
2023/03/28 08:28:04;;;;;;;7.33;5.37;;;5.00;86.10;;;;;;5030351;28;20229;-81
2023/03/28 08:30:30;;;;;;;8.43;5.43;;;5.10;87.60;;;;;;5020206;28;20177;-82
2023/03/28 08:32:56;;;;;;;7.67;5.90;;;5.30;86.90;;;;;;5019956;28;20209;-83
2023/03/28 08:35:21;;;;;;;8.80;6.00;;;5.30;84.60;;;;;;5018617;28;20284;-84
2023/03/28 08:37:49;;;;;;;10.87;7.83;;;5.40;82.50;;;;;;5020833;28;20706;-81
2023/03/28 08:40:17;;;;;;;5.93;5.30;;;5.60;81.80;;;;;;5020979;28;20176;-83
2023/03/28 08:43:08;;;;;;;8.03;5.10;;;5.80;79.40;;;;;;5028085;28;20269;-81
2023/03/28 08:45:40;;;;;;;7.37;5.30;;;5.90;78.40;;;;;;5040359;28;20228;-81
2023/03/28 08:48:28;;;;;;;17.43;5.90;;;5.90;77.00;;;;;;5030692;28;20208;-80
2023/03/28 08:51:05;;;;;;;6.57;4.90;;;6.10;79.50;;;;;;5020312;28;20166;-81
2023/03/28 08:53:37;;;;;;;339.17;52.33;;;6.00;77.10;;;;;;5021704;28;20235;-80
2023/03/28 08:56:06;;;;;;;34.60;9.23;;;6.30;76.80;;;;;;5026219;28;20192;-81
2023/03/28 08:58:46;;;;;;;9.60;6.23;;;6.50;74.50;;;;;;5023339;28;20209;-83
2023/03/28 09:01:12;;;;;;;9.73;6.07;;;6.70;73.30;;;;;;5024390;28;20208;-82
2023/03/28 09:03:38;;;;;;;9.57;5.57;;;6.80;72.40;;;;;;5024769;28;20237;-82
2023/03/28 09:06:04;;;;;;;8.50;5.00;;;7.10;70.80;;;;;;5023701;28;20189;-83
2023/03/28 09:08:48;;;;;;;7.77;4.77;;;7.20;69.60;;;;;;5020939;28;20419;-83
2023/03/28 09:11:20;;;;;;;13.17;6.30;;;7.10;70.10;;;;;;5020775;28;20192;-84
2023/03/28 09:14:24;;;;;;;7.20;4.57;;;7.20;68.30;;;;;;5019049;28;20217;-82
2023/03/28 09:16:58;;;;;;;5.00;4.43;;;7.40;68.30;;;;;;5019789;28;20265;-83
2023/03/28 09:19:42;;;;;;;6.93;4.80;;;7.40;67.60;;;;;;5003008;28;20930;-84
2023/03/28 09:22:19;;;;;;;9.77;6.23;;;7.60;68.10;;;;;;5025434;28;20184;-80
2023/03/28 09:24:54;;;;;;;6.07;4.60;;;8.00;67.50;;;;;;5040726;28;20216;-82
2023/03/28 09:27:34;;;;;;;6.40;4.07;;;8.20;64.50;;;;;;5039095;28;20200;-83
2023/03/28 09:30:29;;;;;;;7.13;4.03;;;8.40;64.20;;;;;;5022321;28;20216;-82
2023/03/28 09:32:59;;;;;;;7.93;4.97;;;8.40;61.70;;;;;;4988828;28;20217;-81
2023/03/28 09:35:26;;;;;;;5.60;5.07;;;8.20;62.10;;;;;;5003036;28;20273;-83
2023/03/28 09:38:04;;;;;;;10.23;6.60;;;8.20;63.20;;;;;;5026064;28;20197;-83
2023/03/28 09:40:32;;;;;;;6.87;4.20;;;8.00;61.70;;;;;;5026076;28;20178;-81
2023/03/28 09:43:13;;;;;;;4.77;4.07;;;7.70;63.20;;;;;;5028018;28;20276;-84
2023/03/28 09:46:01;;;;;;;5.03;3.50;;;7.70;61.50;;;;;;5034388;28;20193;-82
2023/03/28 09:48:30;;;;;;;5.60;4.10;;;7.60;62.00;;;;;;5032974;28;20192;-82
2023/03/28 09:50:57;;;;;;;6.40;4.73;;;7.60;61.30;;;;;;5018549;28;20239;-83
2023/03/28 09:53:30;;;;;;;7.50;4.13;;;8.00;59.10;;;;;;5020186;28;20202;-84
2023/03/28 09:56:10;;;;;;;5.60;4.43;;;8.10;59.40;;;;;;5018194;28;20220;-82
2023/03/28 09:58:54;;;;;;;4.53;4.10;;;8.10;55.70;;;;;;5019191;28;20181;-83
2023/03/28 10:01:38;;;;;;;5.57;3.83;;;8.40;58.50;;;;;;5018673;28;20200;-83
2023/03/28 10:04:09;;;;;;;4.53;3.43;;;8.10;57.00;;;;;;5018070;28;20205;-83
2023/03/28 10:06:39;;;;;;;7.67;3.47;;;8.40;56.60;;;;;;5018062;28;20193;-82
2023/03/28 10:09:12;;;;;;;5.60;3.20;;;8.30;55.10;;;;;;5019419;28;20190;-82
2023/03/28 10:11:53;;;;;;;4.10;3.20;;;8.00;52.70;;;;;;5020462;28;20245;-83
2023/03/28 10:14:37;;;;;;;3.93;3.37;;;8.00;54.00;;;;;;5017991;28;20212;-83
2023/03/28 10:17:29;;;;;;;5.27;3.50;;;8.00;52.70;;;;;;5019162;28;20245;-81
2023/03/28 10:20:02;;;;;;;5.83;3.50;;;7.80;53.90;;;;;;5020179;28;20191;-84
2023/03/28 10:22:32;;;;;;;6.20;3.37;;;8.00;54.20;;;;;;5020980;28;20186;-83
2023/03/28 10:24:59;;;;;;;5.50;3.40;;;8.40;52.50;;;;;;5002235;28;20839;-84
2023/03/28 10:27:31;;;;;;;6.20;3.20;;;8.70;49.50;;;;;;5020963;28;20181;-84
2023/03/28 10:30:07;;;;;;;6.13;3.63;;;8.80;48.40;;;;;;5019063;28;20624;-81
2023/03/28 10:32:33;;;;;;;4.87;3.50;;;8.40;50.20;;;;;;5020776;28;20251;-82
2023/03/28 10:35:18;;;;;;;4.50;3.50;;;8.80;52.00;;;;;;5026591;28;20633;-86
2023/03/28 10:37:47;;;;;;;6.13;3.50;;;9.20;52.40;;;;;;5025420;28;20230;-81
2023/03/28 10:40:24;;;;;;;6.77;3.50;;;8.70;51.10;;;;;;5043172;28;20253;-84
2023/03/28 10:42:50;;;;;;;3.50;2.93;;;8.90;49.90;;;;;;5041195;28;20172;-80
2023/03/28 10:45:20;;;;;;;6.23;2.80;;;8.60;46.60;;;;;;5019674;28;20296;-82
2023/03/28 10:47:49;;;;;;;4.27;2.40;;;8.70;47.20;;;;;;5024163;28;20239;-81
2023/03/28 10:50:45;;;;;;;5.83;2.53;;;8.90;39.90;;;;;;5040565;28;20269;-82
2023/03/28 10:53:36;;;;;;;3.37;2.60;;;9.30;43.00;;;;;;5031379;28;20690;-84
2023/03/28 10:56:29;;;;;;;5.10;2.70;;;10.10;39.50;;;;;;5024231;28;20184;-85
2023/03/28 10:59:15;;;;;;;5.10;3.03;;;10.50;39.10;;;;;;5043333;28;20238;-82
2023/03/28 11:02:14;;;;;;;3.63;2.90;;;10.40;38.20;;;;;;5045157;28;20244;-86
2023/03/28 11:04:58;;;;;;;4.27;3.00;;;10.50;38.10;;;;;;5039671;28;20207;-84
2023/03/28 11:07:29;;;;;;;3.67;2.93;;;10.70;36.60;;;;;;5023971;28;20205;-83
2023/03/28 11:10:00;;;;;;;3.37;2.90;;;11.00;39.70;;;;;;5023659;28;20206;-84
2023/03/28 11:12:44;;;;;;;4.63;3.20;;;11.40;41.10;;;;;;5013292;28;20656;-82
2023/03/28 11:15:23;;;;;;;5.80;3.57;;;11.60;40.50;;;;;;5013176;28;20214;-83
2023/03/28 11:17:49;;;;;;;3.93;3.50;;;11.50;38.70;;;;;;5012741;28;20188;-83
2023/03/28 11:20:42;;;;;;;3.83;3.43;;;11.60;38.80;;;;;;4999009;28;20250;-83
2023/03/28 11:23:37;;;;;;;3.87;3.40;;;11.60;38.00;;;;;;5015105;28;20186;-83
2023/03/28 11:26:08;;;;;;;5.60;3.10;;;11.00;38.40;;;;;;5014484;28;20279;-83
2023/03/28 11:28:42;;;;;;;3.97;3.10;;;11.10;39.30;;;;;;5015184;28;20196;-83
2023/03/28 11:31:16;;;;;;;4.73;3.20;;;11.20;38.00;;;;;;5159365;22;20250;-86
2023/03/28 11:34:24;;;;;;;4.63;3.20;;;11.00;39.50;;;;;;5040531;28;21668;-88
2023/03/28 11:36:52;;;;;;;4.37;3.50;;;10.80;35.40;;;;;;5039069;28;20208;-87
2023/03/28 11:39:30;;;;;;;4.00;3.50;;;11.30;35.20;;;;;;5042262;28;20258;-90
2023/03/28 11:42:00;;;;;;;3.13;2.83;;;11.10;36.40;;;;;;5042001;28;20218;-87
2023/03/28 11:44:31;;;;;;;4.37;3.40;;;10.70;35.70;;;;;;5042073;28;20183;-87
2023/03/28 11:47:09;;;;;;;5.90;3.23;;;10.50;38.50;;;;;;5039770;28;20171;-86
2023/03/28 11:49:41;;;;;;;3.07;2.77;;;10.50;38.60;;;;;;5021439;28;20278;-89
2023/03/28 11:52:19;;;;;;;4.60;2.97;;;10.10;39.40;;;;;;5034456;28;20209;-89
2023/03/28 11:54:47;;;;;;;5.47;3.03;;;10.30;39.20;;;;;;5037294;28;20199;-86
2023/03/28 11:57:23;;;;;;;4.30;3.03;;;10.80;37.20;;;;;;5036923;28;20185;-88
2023/03/28 12:00:11;;;;;;;4.87;3.13;;;11.00;36.90;;;;;;5038616;28;20238;-89
2023/03/28 12:02:51;;;;;;;4.60;3.10;;;10.90;39.20;;;;;;5037863;28;20213;-87
2023/03/28 12:05:25;;;;;;;4.70;2.90;;;11.40;37.50;;;;;;5041660;28;20207;-90
2023/03/28 12:08:06;;;;;;;3.77;3.23;;;11.60;34.40;;;;;;5044308;28;20260;-93
2023/03/28 12:10:35;;;;;;;3.40;3.10;;;11.90;34.10;;;;;;5041991;28;20213;-89
2023/03/28 12:13:37;;;;;;;4.17;3.40;;;12.30;35.40;;;;;;5041939;28;20422;-87
2023/03/28 12:16:16;;;;;;;4.33;3.57;;;13.10;34.20;;;;;;5043215;28;20403;-88
2023/03/28 12:18:57;;;;;;;3.87;3.47;;;13.80;32.90;;;;;;5042645;28;20192;-83
2023/03/28 12:21:44;;;;;;;3.77;3.03;;;13.50;32.10;;;;;;5020993;28;20216;-90
2023/03/28 12:24:45;;;;;;;3.20;2.90;;;13.00;31.80;;;;;;5040562;28;20188;-88
2023/03/28 12:27:14;;;;;;;3.30;3.00;;;12.50;31.20;;;;;;5040466;28;20269;-90
2023/03/28 12:30:06;;;;;;;4.83;3.47;;;12.80;32.20;;;;;;5040111;28;20186;-89
2023/03/28 12:32:57;;;;;;;4.70;3.17;;;13.00;32.90;;;;;;5022345;28;20235;-91
2023/03/28 12:35:42;;;;;;;4.10;3.40;;;13.80;31.60;;;;;;5043107;28;20549;-91
2023/03/28 12:38:38;;;;;;;5.90;5.40;;;14.30;32.10;;;;;;5042820;28;20196;-84
2023/03/28 12:41:13;;;;;;;4.43;3.60;;;14.80;30.00;;;;;;5036343;28;20206;-93
2023/03/28 12:43:42;;;;;;;4.10;3.70;;;15.30;29.80;;;;;;5040386;28;20245;-87
2023/03/28 12:46:24;;;;;;;4.47;3.50;;;15.50;28.90;;;;;;5039231;28;20182;-84
2023/03/28 12:49:11;;;;;;;3.77;3.30;;;15.30;28.10;;;;;;5039415;28;20199;-90
2023/03/28 12:51:52;;;;;;;3.77;3.37;;;15.20;29.00;;;;;;5037320;28;20212;-85
2023/03/28 12:54:23;;;;;;;3.93;3.57;;;15.20;29.30;;;;;;5038212;28;20589;-91
2023/03/28 12:57:31;;;;;;;4.30;3.90;;;15.00;30.00;;;;;;5041899;28;20173;-90
2023/03/28 13:00:23;;;;;;;3.30;3.00;;;14.40;30.70;;;;;;5043324;28;20212;-89
2023/03/28 13:03:18;;;;;;;5.37;3.43;;;14.30;30.40;;;;;;5021038;28;20177;-89
2023/03/28 13:06:17;;;;;;;3.93;3.50;;;14.00;30.50;;;;;;5039537;28;20221;-87
2023/03/28 13:09:01;;;;;;;7.27;6.63;;;14.90;30.00;;;;;;5041161;28;21081;-88
2023/03/28 13:12:00;;;;;;;5.73;3.40;;;15.50;30.30;;;;;;5036755;28;20220;-88
2023/03/28 13:14:40;;;;;;;4.30;3.90;;;15.30;30.80;;;;;;5040987;28;20196;-91
2023/03/28 13:17:15;;;;;;;5.00;3.90;;;14.80;30.00;;;;;;5027107;28;20191;-85
2023/03/28 13:19:42;;;;;;;4.30;3.63;;;14.60;31.20;;;;;;5042056;28;20187;-89
2023/03/28 13:22:29;;;;;;;4.13;3.60;;;14.50;30.40;;;;;;5038642;28;20520;-81